createdAt,value
2023-04-10T00:01:47.486Z,9.60
2023-04-10T00:04:45.844Z,9.50
2023-04-10T00:07:43.902Z,9.40
2023-04-10T00:10:42.127Z,9.40
2023-04-10T00:13:40.063Z,9.30
2023-04-10T00:16:38.119Z,9.20
2023-04-10T00:19:36.114Z,9.20
2023-04-10T00:22:34.054Z,9.20
2023-04-10T00:25:32.126Z,9.10
2023-04-10T00:28:30.005Z,9.10
2023-04-10T00:31:27.904Z,9.00
2023-04-10T00:34:26.434Z,9.00
2023-04-10T00:37:24.311Z,9.10
2023-04-10T00:40:22.694Z,9.10
2023-04-10T00:43:20.801Z,9.10
2023-04-10T00:46:18.803Z,9.10
2023-04-10T00:49:18.891Z,9.10
2023-04-10T00:52:17.219Z,9.10
2023-04-10T00:55:16.581Z,9.10
2023-04-10T00:58:15.167Z,9.10
2023-04-10T01:01:13.776Z,9.20
2023-04-10T01:04:12.322Z,9.30
2023-04-10T01:07:33.293Z,9.40
2023-04-10T01:10:44.076Z,9.50
2023-04-10T01:14:00.533Z,9.60
2023-04-10T01:17:04.375Z,9.80
2023-04-10T01:20:05.261Z,9.90
2023-04-10T01:23:17.375Z,10.00
2023-04-10T01:26:20.275Z,10.20
2023-04-10T01:29:22.450Z,10.30
2023-04-10T01:32:23.598Z,10.40
2023-04-10T01:35:22.446Z,10.60
2023-04-10T01:38:22.064Z,10.80
2023-04-10T01:41:20.657Z,10.90
2023-04-10T01:44:20.313Z,11.00
2023-04-10T01:47:19.145Z,11.10
2023-04-10T01:50:18.329Z,11.20
2023-04-10T01:53:17.512Z,11.30
2023-04-10T01:56:16.792Z,11.40
2023-04-10T01:59:14.645Z,11.50
2023-04-10T02:02:12.932Z,11.60
2023-04-10T02:05:14.412Z,11.70
2023-04-10T02:08:33.773Z,11.90
2023-04-10T02:11:39.412Z,12.00
2023-04-10T02:14:46.393Z,12.10
2023-04-10T02:17:44.799Z,12.00
2023-04-10T02:20:42.702Z,12.00
2023-04-10T02:23:40.984Z,12.10
2023-04-10T02:26:52.924Z,12.20
2023-04-10T02:29:52.164Z,12.30
2023-04-10T02:32:50.057Z,12.50
2023-04-10T02:35:48.225Z,12.60
2023-04-10T02:38:46.246Z,12.70
2023-04-10T02:41:44.106Z,12.90
2023-04-10T02:44:42.022Z,13.00
2023-04-10T02:47:40.191Z,13.00
2023-04-10T02:50:38.167Z,13.00
2023-04-10T02:53:36.259Z,13.10
2023-04-10T02:56:36.953Z,13.30
2023-04-10T02:59:34.859Z,13.50
2023-04-10T03:02:33.174Z,13.60
2023-04-10T03:05:31.805Z,13.80
2023-04-10T03:08:30.964Z,14.00
2023-04-10T03:11:28.825Z,14.20
2023-04-10T03:14:27.542Z,14.30
2023-04-10T03:17:25.542Z,14.30
2023-04-10T03:20:23.426Z,14.40
2023-04-10T03:23:21.429Z,14.50
2023-04-10T03:26:19.398Z,14.60
2023-04-10T03:29:19.705Z,14.70
2023-04-10T03:32:17.543Z,14.80
2023-04-10T03:35:15.431Z,14.80
2023-04-10T03:38:13.129Z,15.00
2023-04-10T03:41:11.049Z,15.10
2023-04-10T03:44:08.878Z,15.20
2023-04-10T03:47:06.819Z,15.30
2023-04-10T03:50:04.977Z,15.30
2023-04-10T03:53:03.063Z,15.20
2023-04-10T03:56:00.905Z,15.30
2023-04-10T03:58:58.880Z,15.30
2023-04-10T04:01:56.781Z,15.50
2023-04-10T04:04:54.811Z,15.70
2023-04-10T04:07:52.597Z,15.90
2023-04-10T04:10:50.785Z,15.90
2023-04-10T04:13:48.688Z,16.00
2023-04-10T04:16:46.941Z,15.90
2023-04-10T04:19:45.042Z,15.90
2023-04-10T04:22:43.165Z,15.90
2023-04-10T04:25:40.861Z,15.80
2023-04-10T04:28:39.051Z,15.80
2023-04-10T04:31:36.899Z,15.70
2023-04-10T04:34:34.885Z,15.80
2023-04-10T04:37:32.578Z,15.70
2023-04-10T04:40:30.460Z,15.70
2023-04-10T04:43:28.384Z,15.60
2023-04-10T04:46:26.395Z,15.50
2023-04-10T04:49:24.252Z,15.50
2023-04-10T04:52:22.057Z,15.50
2023-04-10T04:55:19.938Z,15.40
2023-04-10T04:58:17.819Z,15.40
2023-04-10T05:01:15.939Z,15.30
2023-04-10T05:04:13.949Z,15.00
2023-04-10T05:07:12.134Z,15.10
2023-04-10T05:10:10.451Z,15.00
2023-04-10T05:13:08.505Z,15.00
2023-04-10T05:16:06.827Z,14.90
2023-04-10T05:19:04.946Z,14.90
2023-04-10T05:22:03.040Z,14.80
2023-04-10T05:25:01.103Z,14.80
2023-04-10T05:27:58.956Z,14.80
2023-04-10T05:30:56.894Z,14.60
2023-04-10T05:33:54.649Z,14.60
2023-04-10T05:36:53.310Z,14.80
2023-04-10T05:39:51.049Z,14.90
2023-04-10T05:42:48.870Z,15.00
2023-04-10T05:45:46.556Z,15.10
2023-04-10T05:48:44.639Z,15.10
2023-04-10T05:51:42.366Z,15.20
2023-04-10T05:54:40.459Z,15.30
2023-04-10T05:57:39.929Z,15.30
2023-04-10T06:00:37.904Z,15.10
2023-04-10T06:03:36.124Z,15.40
2023-04-10T06:06:34.479Z,15.50
2023-04-10T06:09:32.299Z,15.50
2023-04-10T06:12:30.194Z,15.50
2023-04-10T06:15:28.260Z,15.50
2023-04-10T06:18:26.225Z,15.50
2023-04-10T06:21:24.067Z,15.40
2023-04-10T06:24:21.804Z,15.50
2023-04-10T06:27:19.697Z,15.40
2023-04-10T06:30:17.407Z,15.50
2023-04-10T06:33:15.356Z,15.40
2023-04-10T06:36:13.288Z,15.50
2023-04-10T06:39:11.045Z,15.70
2023-04-10T06:42:08.999Z,15.60
2023-04-10T06:45:07.372Z,15.80
2023-04-10T06:48:06.303Z,16.10
2023-04-10T06:51:04.507Z,16.10
2023-04-10T06:54:02.641Z,16.10
2023-04-10T06:57:01.315Z,16.20
2023-04-10T06:59:59.289Z,16.00
2023-04-10T07:02:57.274Z,15.80
2023-04-10T07:05:55.226Z,15.90
2023-04-10T07:08:53.334Z,15.80
2023-04-10T07:11:52.734Z,15.70
2023-04-10T07:14:50.719Z,15.90
2023-04-10T07:17:49.417Z,16.00
2023-04-10T07:20:47.693Z,16.10
2023-04-10T07:23:45.626Z,16.20
2023-04-10T07:26:43.924Z,16.30
2023-04-10T07:29:41.990Z,16.40
2023-04-10T07:32:40.949Z,16.60
2023-04-10T07:35:39.180Z,16.60
2023-04-10T07:38:38.370Z,16.60
2023-04-10T07:41:36.433Z,16.80
2023-04-10T07:44:34.353Z,16.90
2023-04-10T07:47:32.264Z,16.60
2023-04-10T07:50:31.331Z,16.50
2023-04-10T07:53:29.439Z,16.40
2023-04-10T07:56:27.264Z,16.30
2023-04-10T07:59:25.207Z,16.40
2023-04-10T08:02:26.205Z,16.50
2023-04-10T08:05:25.099Z,16.40
2023-04-10T08:08:23.110Z,16.40
2023-04-10T08:11:29.097Z,16.30
2023-04-10T08:14:27.205Z,16.50
2023-04-10T08:17:25.161Z,16.80
2023-04-10T08:20:22.999Z,17.20
2023-04-10T08:23:21.855Z,17.40
2023-04-10T08:26:20.323Z,17.40
2023-04-10T08:29:18.602Z,17.40
2023-04-10T08:32:16.723Z,17.40
2023-04-10T08:35:14.678Z,17.70
2023-04-10T08:38:14.519Z,17.90
2023-04-10T08:41:17.001Z,18.10
2023-04-10T08:44:15.009Z,18.00
2023-04-10T08:47:14.204Z,17.70
2023-04-10T08:50:16.726Z,17.90
2023-04-10T08:53:16.524Z,17.80
2023-04-10T08:56:16.942Z,17.40
2023-04-10T08:59:15.013Z,17.40
2023-04-10T09:02:13.311Z,17.60
2023-04-10T09:05:13.766Z,17.80
2023-04-10T09:08:12.792Z,17.80
2023-04-10T09:11:11.360Z,17.80
2023-04-10T09:14:22.738Z,17.50
2023-04-10T09:17:22.261Z,17.80
2023-04-10T09:20:25.172Z,17.70
2023-04-10T09:23:22.940Z,17.70
2023-04-10T09:26:26.636Z,17.70
2023-04-10T09:29:25.026Z,17.70
2023-04-10T09:32:52.261Z,17.80
2023-04-10T09:35:51.146Z,17.90
2023-04-10T09:38:52.803Z,18.10
2023-04-10T09:41:52.932Z,18.20
2023-04-10T09:44:56.931Z,18.20
2023-04-10T09:48:04.781Z,18.10
2023-04-10T09:51:02.967Z,18.10
2023-04-10T09:54:01.973Z,18.00
2023-04-10T09:57:00.158Z,18.10
2023-04-10T09:59:59.731Z,18.00
2023-04-10T10:03:00.450Z,17.80
2023-04-10T10:05:58.534Z,17.70
2023-04-10T10:08:57.010Z,17.70
2023-04-10T10:11:56.322Z,17.70
2023-04-10T10:15:22.556Z,17.60
2023-04-10T10:18:52.508Z,17.60
2023-04-10T10:21:52.756Z,17.60
2023-04-10T10:24:57.167Z,17.70
2023-04-10T10:27:56.253Z,17.70
2023-04-10T10:30:55.338Z,17.60
2023-04-10T10:33:54.828Z,17.50
2023-04-10T10:36:52.560Z,17.40
2023-04-10T10:40:05.246Z,17.50
2023-04-10T10:43:24.558Z,17.60
2023-04-10T10:46:48.521Z,17.50
2023-04-10T10:49:59.458Z,17.30
2023-04-10T10:52:58.309Z,17.10
2023-04-10T10:55:56.393Z,16.90
2023-04-10T10:58:56.557Z,16.90
2023-04-10T11:02:18.716Z,16.70
2023-04-10T11:05:51.778Z,16.00
2023-04-10T11:08:53.947Z,15.80
2023-04-10T11:12:02.292Z,15.60
2023-04-10T11:15:06.847Z,15.70
2023-04-10T11:18:04.721Z,15.60
2023-04-10T11:21:13.449Z,15.60
2023-04-10T11:24:11.677Z,15.50
2023-04-10T11:27:09.446Z,15.40
2023-04-10T11:30:28.602Z,15.40
2023-04-10T11:33:26.407Z,15.30
2023-04-10T11:36:25.065Z,15.30
2023-04-10T11:39:23.096Z,15.10
2023-04-10T11:42:22.330Z,15.20
2023-04-10T11:45:29.702Z,15.30
2023-04-10T11:48:29.484Z,15.20
2023-04-10T11:51:30.621Z,15.40
2023-04-10T11:54:29.930Z,15.40
2023-04-10T11:57:35.867Z,15.50
2023-04-10T12:00:33.957Z,15.50
2023-04-10T12:03:40.058Z,15.60
2023-04-10T12:06:38.138Z,15.60
2023-04-10T12:09:36.191Z,15.50
2023-04-10T12:12:38.306Z,15.60
2023-04-10T12:15:36.288Z,15.50
2023-04-10T12:18:34.579Z,15.30
2023-04-10T12:21:32.653Z,15.20
2023-04-10T12:24:46.662Z,15.00
2023-04-10T12:27:51.046Z,15.00
2023-04-10T12:30:55.711Z,15.00
2023-04-10T12:33:58.054Z,15.00
2023-04-10T12:36:56.180Z,15.00
2023-04-10T12:39:54.368Z,15.10
2023-04-10T12:42:52.960Z,14.90
2023-04-10T12:45:50.782Z,14.90
2023-04-10T12:48:48.822Z,14.70
2023-04-10T12:51:53.885Z,14.40
2023-04-10T12:54:51.922Z,14.40
2023-04-10T12:57:52.360Z,14.50
2023-04-10T13:00:50.380Z,14.50
2023-04-10T13:03:49.587Z,14.60
2023-04-10T13:06:48.971Z,14.50
2023-04-10T13:09:47.282Z,14.50
2023-04-10T13:12:45.252Z,14.50
2023-04-10T13:15:43.528Z,14.30
2023-04-10T13:18:41.228Z,14.30
2023-04-10T13:21:39.066Z,14.30
2023-04-10T13:24:37.598Z,14.20
2023-04-10T13:27:35.517Z,14.10
2023-04-10T13:30:33.666Z,13.90
2023-04-10T13:33:31.885Z,13.70
2023-04-10T13:36:29.797Z,13.60
2023-04-10T13:39:31.729Z,13.40
2023-04-10T13:42:29.633Z,13.10
2023-04-10T13:45:27.719Z,12.90
2023-04-10T13:48:33.662Z,12.90
2023-04-10T13:51:37.604Z,12.70
2023-04-10T13:54:35.511Z,12.40
2023-04-10T13:57:33.394Z,12.20
2023-04-10T14:00:31.297Z,12.00
2023-04-10T14:03:29.553Z,11.70
2023-04-10T14:06:27.881Z,11.30
2023-04-10T14:09:25.959Z,11.40
2023-04-10T14:12:24.602Z,11.50
2023-04-10T14:15:23.328Z,11.50
2023-04-10T14:18:21.186Z,11.40
2023-04-10T14:21:20.671Z,11.40
2023-04-10T14:24:18.797Z,11.30
2023-04-10T14:27:17.596Z,11.20
2023-04-10T14:30:15.488Z,10.90
2023-04-10T14:33:13.999Z,10.90
2023-04-10T14:36:12.077Z,11.00
2023-04-10T14:39:10.041Z,11.00
2023-04-10T14:42:08.000Z,10.90
2023-04-10T14:45:06.862Z,10.80
2023-04-10T14:48:05.080Z,10.70
2023-04-10T14:51:03.195Z,10.60
2023-04-10T14:54:01.185Z,10.60
2023-04-10T14:56:59.138Z,10.50
2023-04-10T14:59:57.027Z,10.50
2023-04-10T15:02:55.006Z,10.50
2023-04-10T15:06:00.587Z,10.40
2023-04-10T15:08:58.478Z,10.30
2023-04-10T15:11:57.527Z,10.20
2023-04-10T15:14:55.308Z,10.10
2023-04-10T15:17:53.435Z,10.00
2023-04-10T15:20:51.300Z,10.00
2023-04-10T15:23:49.136Z,10.00
2023-04-10T15:26:47.646Z,10.00
2023-04-10T15:29:45.324Z,10.10
2023-04-10T15:32:43.216Z,10.10
2023-04-10T15:35:41.121Z,10.10
2023-04-10T15:38:40.121Z,10.20
2023-04-10T15:41:38.834Z,10.20
2023-04-10T15:44:36.909Z,10.30
2023-04-10T15:47:34.672Z,10.40
2023-04-10T15:50:32.748Z,10.50
2023-04-10T15:53:30.723Z,10.60
2023-04-10T15:56:28.669Z,10.70
2023-04-10T15:59:26.386Z,10.70
2023-04-10T16:02:24.505Z,10.80
2023-04-10T16:05:22.583Z,10.90
2023-04-10T16:08:20.649Z,11.00
2023-04-10T16:11:18.672Z,11.00
2023-04-10T16:14:16.773Z,11.10
2023-04-10T16:17:14.718Z,11.10
2023-04-10T16:20:13.254Z,11.10
2023-04-10T16:23:11.425Z,11.20
2023-04-10T16:26:09.351Z,11.10
2023-04-10T16:29:07.446Z,11.10
2023-04-10T16:32:05.332Z,11.20
2023-04-10T16:35:03.413Z,11.20
2023-04-10T16:38:01.287Z,11.00
2023-04-10T16:41:02.144Z,11.00
2023-04-10T16:44:00.273Z,10.70
2023-04-10T16:46:58.811Z,10.40
2023-04-10T16:49:57.149Z,10.00
2023-04-10T16:52:55.247Z,9.70
2023-04-10T16:56:01.924Z,9.70
2023-04-10T16:59:02.526Z,9.80
2023-04-10T17:02:00.970Z,9.80
2023-04-10T17:04:59.101Z,9.70
2023-04-10T17:07:56.773Z,9.70
2023-04-10T17:10:55.098Z,9.70
2023-04-10T17:13:52.919Z,9.60
2023-04-10T17:16:50.889Z,9.60
2023-04-10T17:19:49.032Z,9.60
2023-04-10T17:22:47.723Z,9.60
2023-04-10T17:25:45.627Z,9.70
2023-04-10T17:28:46.964Z,9.70
2023-04-10T17:31:44.907Z,9.80
2023-04-10T17:34:43.238Z,9.80
2023-04-10T17:37:41.328Z,9.70
2023-04-10T17:40:41.336Z,9.70
2023-04-10T17:43:39.460Z,9.70
2023-04-10T17:46:37.401Z,9.70
2023-04-10T17:49:35.668Z,9.60
2023-04-10T17:52:33.594Z,9.50
2023-04-10T17:55:31.630Z,9.60
2023-04-10T17:58:29.535Z,9.50
2023-04-10T18:01:30.339Z,9.50
2023-04-10T18:04:28.285Z,9.50
2023-04-10T18:07:26.052Z,9.30
2023-04-10T18:10:24.146Z,9.20
2023-04-10T18:13:21.901Z,9.20
2023-04-10T18:16:20.055Z,9.20
2023-04-10T18:19:18.284Z,9.20
2023-04-10T18:22:16.149Z,9.20
2023-04-10T18:25:14.501Z,9.20
2023-04-10T18:28:15.908Z,9.20
2023-04-10T18:31:19.525Z,9.10
2023-04-10T18:34:17.527Z,9.20
2023-04-10T18:37:15.306Z,9.20
2023-04-10T18:40:16.339Z,9.20
2023-04-10T18:43:14.801Z,9.20
2023-04-10T18:46:13.113Z,9.20
2023-04-10T18:49:11.833Z,9.20
2023-04-10T18:52:09.889Z,9.20
2023-04-10T18:55:08.049Z,9.30
2023-04-10T18:58:05.887Z,9.30
2023-04-10T19:01:03.945Z,9.30
2023-04-10T19:04:02.107Z,9.30
2023-04-10T19:07:00.467Z,9.30
2023-04-10T19:09:58.295Z,9.40
2023-04-10T19:12:57.345Z,9.40
2023-04-10T19:15:55.727Z,9.50
2023-04-10T19:18:56.846Z,9.50
2023-04-10T19:21:55.014Z,9.60
2023-04-10T19:24:52.914Z,9.60
2023-04-10T19:27:51.026Z,9.70
2023-04-10T19:30:48.813Z,9.70
2023-04-10T19:33:46.688Z,9.80
2023-04-10T19:36:44.403Z,9.80
2023-04-10T19:39:42.297Z,9.90
2023-04-10T19:42:40.105Z,9.90
2023-04-10T19:45:39.130Z,10.00
2023-04-10T19:48:37.070Z,10.10
2023-04-10T19:51:34.995Z,10.20
2023-04-10T19:54:32.954Z,10.20
2023-04-10T19:57:30.967Z,10.30
2023-04-10T20:00:28.935Z,10.30
2023-04-10T20:03:28.420Z,10.40
2023-04-10T20:06:27.546Z,10.40
2023-04-10T20:09:25.470Z,10.50
2023-04-10T20:12:23.326Z,10.40
2023-04-10T20:15:22.733Z,10.40
2023-04-10T20:18:20.484Z,10.30
2023-04-10T20:21:19.285Z,10.20
2023-04-10T20:24:16.975Z,10.00
2023-04-10T20:27:16.180Z,10.00
2023-04-10T20:30:14.486Z,10.00
2023-04-10T20:33:12.565Z,10.00
2023-04-10T20:36:10.709Z,10.00
2023-04-10T20:39:08.495Z,10.00
2023-04-10T20:42:07.415Z,10.00
2023-04-10T20:45:05.910Z,10.00
2023-04-10T20:48:03.848Z,10.10
2023-04-10T20:51:02.458Z,10.10
2023-04-10T20:54:00.464Z,10.00
2023-04-10T20:57:00.697Z,10.00
2023-04-10T20:59:58.508Z,10.00
2023-04-10T21:02:56.491Z,10.00
2023-04-10T21:05:54.315Z,9.90
2023-04-10T21:08:53.143Z,9.90
2023-04-10T21:11:51.165Z,9.90
2023-04-10T21:14:49.007Z,9.90
2023-04-10T21:17:46.856Z,9.80
2023-04-10T21:20:45.492Z,9.90
2023-04-10T21:23:43.344Z,9.90
2023-04-10T21:26:41.064Z,9.90
2023-04-10T21:29:39.054Z,9.90
2023-04-10T21:32:37.112Z,9.90
2023-04-10T21:35:35.055Z,9.90
2023-04-10T21:38:32.880Z,9.90
2023-04-10T21:41:31.074Z,9.80
2023-04-10T21:44:28.802Z,9.70
2023-04-10T21:47:26.640Z,9.70
2023-04-10T21:50:26.037Z,9.70
2023-04-10T21:53:23.896Z,9.60
2023-04-10T21:56:21.713Z,9.60
2023-04-10T21:59:19.597Z,9.60
2023-04-10T22:02:17.418Z,9.60
2023-04-10T22:05:15.642Z,9.50
2023-04-10T22:08:14.509Z,9.60
2023-04-10T22:11:12.614Z,9.50
2023-04-10T22:14:16.924Z,9.50
2023-04-10T22:17:15.379Z,9.50
2023-04-10T22:20:13.299Z,9.40
2023-04-10T22:23:11.152Z,9.50
2023-04-10T22:26:08.929Z,9.40
2023-04-10T22:29:06.905Z,9.40
2023-04-10T22:32:04.655Z,9.30
2023-04-10T22:35:02.637Z,9.20
2023-04-10T22:38:00.367Z,9.20
2023-04-10T22:40:59.212Z,9.20
2023-04-10T22:43:57.155Z,9.30
2023-04-10T22:46:55.154Z,9.30
2023-04-10T22:49:53.429Z,9.20
2023-04-10T22:52:51.478Z,9.20
2023-04-10T22:55:49.232Z,9.20
2023-04-10T22:58:47.067Z,9.20
2023-04-10T23:01:45.321Z,9.10
2023-04-10T23:04:43.362Z,9.10
2023-04-10T23:07:41.262Z,9.10
2023-04-10T23:10:39.074Z,9.10
2023-04-10T23:13:37.055Z,9.10
2023-04-10T23:16:35.114Z,9.10
2023-04-10T23:19:32.980Z,9.10
2023-04-10T23:22:31.721Z,9.10
2023-04-10T23:25:29.597Z,9.10
2023-04-10T23:28:28.206Z,9.10
2023-04-10T23:31:26.481Z,9.10
2023-04-10T23:34:24.281Z,9.10
2023-04-10T23:37:22.200Z,9.10
2023-04-10T23:40:21.733Z,9.10
2023-04-10T23:43:19.736Z,9.10
2023-04-10T23:46:17.678Z,9.20
2023-04-10T23:49:15.509Z,9.20
2023-04-10T23:52:13.222Z,9.30
2023-04-10T23:55:11.391Z,9.40
2023-04-10T23:58:09.152Z,9.30
